createdAt,value
2023-03-04T00:00:57.032Z,99259.25
2023-03-04T00:03:25.088Z,99265.53
2023-03-04T00:05:54.715Z,99262.84
2023-03-04T00:08:26.087Z,99261.06
2023-03-04T00:10:54.021Z,99264.59
2023-03-04T00:13:22.428Z,99259.38
2023-03-04T00:15:50.599Z,99264.00
2023-03-04T00:18:18.598Z,99258.09
2023-03-04T00:20:46.532Z,99257.75
2023-03-04T00:23:16.129Z,99261.47
2023-03-04T00:25:44.079Z,99263.81
2023-03-04T00:28:12.071Z,99264.50
2023-03-04T00:30:40.439Z,99262.69
2023-03-04T00:33:08.684Z,99266.94
2023-03-04T00:35:36.749Z,99260.25
2023-03-04T00:38:05.063Z,99266.59
2023-03-04T00:40:34.483Z,99262.53
2023-03-04T00:43:02.557Z,99265.91
2023-03-04T00:45:30.665Z,99264.00
2023-03-04T00:47:58.637Z,99272.19
2023-03-04T00:50:26.553Z,99266.78
2023-03-04T00:52:54.527Z,99265.69
2023-03-04T00:55:22.460Z,99263.25
2023-03-04T00:57:52.032Z,99268.34
2023-03-04T01:00:20.640Z,99267.22
2023-03-04T01:02:48.547Z,99271.63
2023-03-04T01:05:16.865Z,99266.50
2023-03-04T01:07:45.057Z,99258.53
2023-03-04T01:10:15.931Z,99261.13
2023-03-04T01:12:46.822Z,99250.75
2023-03-04T01:15:16.237Z,99254.50
2023-03-04T01:17:44.488Z,99244.38
2023-03-04T01:20:13.997Z,99245.81
2023-03-04T01:22:43.020Z,99252.16
2023-03-04T01:25:11.748Z,99243.34
2023-03-04T01:27:39.874Z,99258.19
2023-03-04T01:30:09.091Z,99244.38
2023-03-04T01:32:38.697Z,99246.66
2023-03-04T01:35:07.639Z,99243.06
2023-03-04T01:37:36.245Z,99247.25
2023-03-04T01:40:05.513Z,99244.69
2023-03-04T01:42:35.991Z,99242.88
2023-03-04T01:45:04.731Z,99242.88
2023-03-04T01:47:34.615Z,99245.16
2023-03-04T01:50:08.649Z,99240.59
2023-03-04T01:52:36.693Z,99245.06
2023-03-04T01:55:11.944Z,99239.56
2023-03-04T01:57:40.768Z,99242.69
2023-03-04T02:00:31.950Z,99244.38
2023-03-04T02:03:01.930Z,99242.78
2023-03-04T02:05:34.394Z,99241.75
2023-03-04T02:08:04.737Z,99243.72
2023-03-04T02:10:33.655Z,99239.41
2023-03-04T02:13:02.394Z,99230.56
2023-03-04T02:15:31.580Z,99234.00
2023-03-04T02:18:00.276Z,99237.56
2023-03-04T02:20:43.717Z,99245.50
2023-03-04T02:23:19.122Z,99229.69
2023-03-04T02:25:51.883Z,99231.56
2023-03-04T02:28:22.102Z,99233.38
2023-03-04T02:30:51.191Z,99229.00
2023-03-04T02:33:20.824Z,99228.97
2023-03-04T02:35:49.210Z,99227.97
2023-03-04T02:38:17.368Z,99234.38
2023-03-04T02:40:49.766Z,99236.06
2023-03-04T02:43:18.000Z,99236.97
2023-03-04T02:45:49.737Z,99239.25
2023-03-04T02:48:20.972Z,99234.19
2023-03-04T02:50:51.493Z,99239.13
2023-03-04T02:53:21.303Z,99237.47
2023-03-04T02:55:50.344Z,99247.72
2023-03-04T02:58:20.303Z,99239.13
2023-03-04T03:00:50.654Z,99242.81
2023-03-04T03:03:18.853Z,99244.50
2023-03-04T03:05:46.883Z,99241.34
2023-03-04T03:08:15.730Z,99239.09
2023-03-04T03:10:44.211Z,99238.72
2023-03-04T03:13:12.803Z,99236.09
2023-03-04T03:15:42.437Z,99242.34
2023-03-04T03:18:12.942Z,99236.34
2023-03-04T03:20:43.692Z,99234.88
2023-03-04T03:23:11.822Z,99239.50
2023-03-04T03:25:40.056Z,99235.91
2023-03-04T03:28:08.180Z,99237.75
2023-03-04T03:30:36.394Z,99245.75
2023-03-04T03:33:07.768Z,99236.97
2023-03-04T03:35:37.251Z,99227.38
2023-03-04T03:38:05.283Z,99226.66
2023-03-04T03:40:33.123Z,99235.84
2023-03-04T03:43:01.104Z,99239.47
2023-03-04T03:45:29.191Z,99232.53
2023-03-04T03:47:57.449Z,99238.72
2023-03-04T03:50:25.392Z,99237.66
2023-03-04T03:52:55.122Z,99228.41
2023-03-04T03:55:25.289Z,99242.78
2023-03-04T03:57:55.990Z,99232.59
2023-03-04T04:00:24.348Z,99237.72
2023-03-04T04:02:53.576Z,99243.66
2023-03-04T04:05:21.532Z,99243.44
2023-03-04T04:07:49.538Z,99246.47
2023-03-04T04:10:20.524Z,99241.69
2023-03-04T04:12:48.531Z,99241.91
2023-03-04T04:15:16.716Z,99245.97
2023-03-04T04:17:44.802Z,99241.69
2023-03-04T04:20:13.279Z,99242.50
2023-03-04T04:22:41.491Z,99246.09
2023-03-04T04:25:11.733Z,99248.66
2023-03-04T04:27:41.353Z,99246.25
2023-03-04T04:30:11.163Z,99244.16
2023-03-04T04:32:39.219Z,99243.16
2023-03-04T04:35:10.904Z,99242.50
2023-03-04T04:37:41.336Z,99240.25
2023-03-04T04:40:10.603Z,99253.25
2023-03-04T04:42:38.840Z,99251.56
2023-03-04T04:45:10.187Z,99261.81
2023-03-04T04:47:38.454Z,99253.16
2023-03-04T04:50:07.521Z,99248.72
2023-03-04T04:52:36.050Z,99249.59
2023-03-04T04:55:05.837Z,99246.19
2023-03-04T04:57:34.629Z,99249.94
2023-03-04T05:00:02.606Z,99242.47
2023-03-04T05:02:31.872Z,99247.53
2023-03-04T05:04:59.810Z,99256.66
2023-03-04T05:07:27.776Z,99258.47
2023-03-04T05:09:55.694Z,99265.38
2023-03-04T05:12:23.748Z,99267.06
2023-03-04T05:14:51.907Z,99268.50
2023-03-04T05:17:20.676Z,99275.13
2023-03-04T05:19:50.148Z,99279.38
2023-03-04T05:22:18.059Z,99274.00
2023-03-04T05:24:45.975Z,99274.00
2023-03-04T05:27:13.950Z,99274.13
2023-03-04T05:29:42.780Z,99281.91
2023-03-04T05:32:10.998Z,99275.13
2023-03-04T05:34:38.935Z,99274.84
2023-03-04T05:37:08.352Z,99277.22
2023-03-04T05:39:36.390Z,99287.44
2023-03-04T05:42:04.373Z,99286.44
2023-03-04T05:44:32.324Z,99275.97
2023-03-04T05:47:00.258Z,99273.69
2023-03-04T05:49:28.191Z,99283.22
2023-03-04T05:51:55.980Z,99280.47
2023-03-04T05:54:25.293Z,99285.69
2023-03-04T05:56:53.201Z,99291.19
2023-03-04T05:59:22.166Z,99282.28
2023-03-04T06:01:50.385Z,99291.66
2023-03-04T06:04:19.125Z,99291.69
2023-03-04T06:06:47.583Z,99291.69
2023-03-04T06:09:15.433Z,99291.75
2023-03-04T06:11:44.757Z,99290.97
2023-03-04T06:14:12.758Z,99297.03
2023-03-04T06:16:40.791Z,99295.66
2023-03-04T06:19:08.678Z,99296.41
2023-03-04T06:21:36.707Z,99297.59
2023-03-04T06:24:04.786Z,99308.44
2023-03-04T06:26:35.053Z,99317.88
2023-03-04T06:29:06.405Z,99311.38
2023-03-04T06:31:34.530Z,99316.03
2023-03-04T06:34:02.490Z,99316.53
2023-03-04T06:36:30.554Z,99322.59
2023-03-04T06:38:58.434Z,99326.28
2023-03-04T06:41:26.362Z,99332.50
2023-03-04T06:43:56.714Z,99324.53
2023-03-04T06:46:28.211Z,99334.03
2023-03-04T06:48:58.064Z,99336.44
2023-03-04T06:51:26.411Z,99336.25
2023-03-04T06:53:54.692Z,99339.47
2023-03-04T06:56:22.541Z,99340.72
2023-03-04T06:58:50.550Z,99343.97
2023-03-04T07:01:21.168Z,99347.09
2023-03-04T07:03:52.511Z,99346.22
2023-03-04T07:06:22.396Z,99353.50
2023-03-04T07:08:52.154Z,99348.44
2023-03-04T07:11:23.395Z,99341.69
2023-03-04T07:13:53.393Z,99351.22
2023-03-04T07:16:24.569Z,99354.84
2023-03-04T07:18:54.125Z,99355.06
2023-03-04T07:21:22.931Z,99358.50
2023-03-04T07:23:52.668Z,99370.19
2023-03-04T07:26:20.607Z,99372.16
2023-03-04T07:28:52.308Z,99363.38
2023-03-04T07:31:27.667Z,99362.25
2023-03-04T07:34:00.265Z,99366.63
2023-03-04T07:36:29.207Z,99361.31
2023-03-04T07:38:57.741Z,99380.28
2023-03-04T07:41:28.317Z,99370.25
2023-03-04T07:43:59.955Z,99385.13
2023-03-04T07:46:31.871Z,99380.25
2023-03-04T07:49:02.481Z,99377.84
2023-03-04T07:51:30.768Z,99382.19
2023-03-04T07:54:00.917Z,99390.16
2023-03-04T07:56:30.778Z,99388.66
2023-03-04T07:58:59.169Z,99384.53
2023-03-04T08:01:29.863Z,99387.00
2023-03-04T08:03:58.266Z,99383.22
2023-03-04T08:06:28.173Z,99387.22
2023-03-04T08:08:59.331Z,99388.41
2023-03-04T08:11:28.706Z,99391.19
2023-03-04T08:13:56.544Z,99390.56
2023-03-04T08:16:26.678Z,99402.16
2023-03-04T08:18:56.962Z,99393.13
2023-03-04T08:21:28.247Z,99404.91
2023-03-04T08:23:58.600Z,99399.75
2023-03-04T08:26:29.037Z,99407.03
2023-03-04T08:28:58.078Z,99403.59
2023-03-04T08:31:27.139Z,99401.81
2023-03-04T08:33:56.804Z,99404.69
2023-03-04T08:36:25.530Z,99411.25
2023-03-04T08:38:55.037Z,99411.41
2023-03-04T08:41:25.661Z,99411.34
2023-03-04T08:43:53.754Z,99411.06
2023-03-04T08:46:22.643Z,99415.84
2023-03-04T08:48:51.371Z,99410.75
2023-03-04T08:51:21.927Z,99408.56
2023-03-04T08:53:50.176Z,99396.31
2023-03-04T08:56:20.665Z,99404.16
2023-03-04T08:58:48.621Z,99397.38
2023-03-04T09:01:17.576Z,99396.66
2023-03-04T09:03:45.646Z,99410.72
2023-03-04T09:06:16.387Z,99406.38
2023-03-04T09:08:44.689Z,99410.16
2023-03-04T09:11:12.840Z,99415.31
2023-03-04T09:13:42.200Z,99412.31
2023-03-04T09:16:11.218Z,99405.34
2023-03-04T09:18:40.163Z,99415.84
2023-03-04T09:21:09.329Z,99420.50
2023-03-04T09:23:37.329Z,99411.34
2023-03-04T09:26:15.654Z,99421.09
2023-03-04T09:28:44.951Z,99412.69
2023-03-04T09:31:15.457Z,99408.47
2023-03-04T09:33:43.614Z,99413.31
2023-03-04T09:36:13.037Z,99402.91
2023-03-04T09:38:42.093Z,99401.44
2023-03-04T09:41:13.794Z,99401.81
2023-03-04T09:43:42.406Z,99401.38
2023-03-04T09:46:17.065Z,99407.34
2023-03-04T09:48:47.756Z,99405.16
2023-03-04T09:51:23.516Z,99401.03
2023-03-04T09:54:09.695Z,99399.91
2023-03-04T09:56:40.777Z,99404.16
2023-03-04T09:59:18.406Z,99406.69
2023-03-04T10:01:53.134Z,99407.84
2023-03-04T10:04:32.500Z,99406.72
2023-03-04T10:07:02.167Z,99406.97
2023-03-04T10:09:34.591Z,99406.47
2023-03-04T10:12:05.596Z,99395.94
2023-03-04T10:14:39.966Z,99399.28
2023-03-04T10:17:15.429Z,99393.50
2023-03-04T10:19:53.046Z,99388.06
2023-03-04T10:22:30.038Z,99398.00
2023-03-04T10:24:59.799Z,99394.09
2023-03-04T10:27:30.319Z,99388.75
2023-03-04T10:30:00.763Z,99392.75
2023-03-04T10:32:30.177Z,99397.66
2023-03-04T10:34:58.794Z,99382.88
2023-03-04T10:37:46.308Z,99385.69
2023-03-04T10:40:23.234Z,99382.53
2023-03-04T10:42:52.197Z,99378.00
2023-03-04T10:45:26.330Z,99384.28
2023-03-04T10:47:58.921Z,99380.22
2023-03-04T10:50:30.114Z,99385.25
2023-03-04T10:52:58.568Z,99384.00
2023-03-04T10:55:29.669Z,99376.34
2023-03-04T10:58:03.888Z,99369.88
2023-03-04T11:00:33.944Z,99362.00
2023-03-04T11:03:29.028Z,99365.78
2023-03-04T11:06:17.618Z,99363.25
2023-03-04T11:08:47.581Z,99354.09
2023-03-04T11:11:29.950Z,99361.06
2023-03-04T11:14:02.748Z,99362.00
2023-03-04T11:16:34.918Z,99352.75
2023-03-04T11:19:13.312Z,99356.66
2023-03-04T11:21:42.756Z,99354.31
2023-03-04T11:24:28.205Z,99347.31
2023-03-04T11:27:04.965Z,99354.00
2023-03-04T11:29:39.358Z,99354.66
2023-03-04T11:32:12.971Z,99348.34
2023-03-04T11:34:51.014Z,99344.28
2023-03-04T11:37:27.537Z,99338.59
2023-03-04T11:40:09.335Z,99335.84
2023-03-04T11:43:08.060Z,99345.59
2023-03-04T11:46:12.855Z,99349.25
2023-03-04T11:49:08.878Z,99337.69
2023-03-04T11:52:03.637Z,99337.44
2023-03-04T11:54:53.267Z,99340.53
2023-03-04T11:57:42.547Z,99334.03
2023-03-04T12:00:38.861Z,99330.00
2023-03-04T12:04:04.951Z,99329.16
2023-03-04T12:06:59.326Z,99321.66
2023-03-04T12:09:54.258Z,99308.16
2023-03-04T12:12:53.080Z,99306.63
2023-03-04T12:15:45.625Z,99301.91
2023-03-04T12:18:46.616Z,99301.94
2023-03-04T12:22:17.977Z,99298.44
2023-03-04T12:25:19.605Z,99294.06
2023-03-04T12:28:07.418Z,99292.75
2023-03-04T12:31:07.353Z,99289.91
2023-03-04T12:34:11.206Z,99289.75
2023-03-04T12:37:02.305Z,99283.53
2023-03-04T12:40:11.921Z,99278.75
2023-03-04T12:43:08.453Z,99280.81
2023-03-04T12:46:03.835Z,99275.88
2023-03-04T12:48:59.455Z,99273.09
2023-03-04T12:52:06.521Z,99270.56
2023-03-04T12:58:33.406Z,99262.25
2023-03-04T13:01:31.075Z,99269.84
2023-03-04T13:04:19.549Z,99256.22
2023-03-04T13:07:12.331Z,99258.84
2023-03-04T13:10:15.062Z,99262.59
2023-03-04T13:12:58.244Z,99266.38
2023-03-04T13:15:46.912Z,99262.03
2023-03-04T13:18:42.803Z,99264.63
2023-03-04T13:21:36.700Z,99256.00
2023-03-04T13:24:52.348Z,99251.84
2023-03-04T13:27:53.754Z,99246.13
2023-03-04T13:31:16.803Z,99248.66
2023-03-04T13:34:12.258Z,99250.00
2023-03-04T13:37:09.418Z,99254.84
2023-03-04T13:40:31.234Z,99250.84
2023-03-04T13:43:44.685Z,99254.09
2023-03-04T13:46:46.214Z,99248.00
2023-03-04T13:49:32.250Z,99250.91
2023-03-04T13:52:54.375Z,99246.81
2023-03-04T13:55:49.720Z,99248.56
2023-03-04T13:58:33.344Z,99245.97
2023-03-04T14:01:27.889Z,99245.97
2023-03-04T14:04:04.930Z,99254.41
2023-03-04T14:06:49.446Z,99259.75
2023-03-04T14:09:29.437Z,99254.53
2023-03-04T14:12:07.730Z,99246.50
2023-03-04T14:14:56.658Z,99251.59
2023-03-04T14:17:33.979Z,99243.81
2023-03-04T14:20:27.991Z,99238.38
2023-03-04T14:23:03.559Z,99242.84
2023-03-04T14:25:49.048Z,99234.91
2023-03-04T14:28:21.734Z,99232.00
2023-03-04T14:30:57.284Z,99229.81
2023-03-04T14:33:29.621Z,99230.56
2023-03-04T14:36:01.050Z,99230.00
2023-03-04T14:38:33.069Z,99226.41
2023-03-04T14:41:06.949Z,99223.75
2023-03-04T14:43:41.151Z,99218.53
2023-03-04T14:46:12.819Z,99221.88
2023-03-04T14:48:46.279Z,99218.25
2023-03-04T14:51:30.487Z,99216.31
2023-03-04T14:54:00.150Z,99207.69
2023-03-04T14:56:29.859Z,99205.84
2023-03-04T14:58:59.577Z,99210.66
2023-03-04T15:01:34.427Z,99206.16
2023-03-04T15:04:06.278Z,99202.44
2023-03-04T15:06:40.678Z,99196.69
2023-03-04T15:09:22.055Z,99205.78
2023-03-04T15:11:52.656Z,99207.88
2023-03-04T15:14:43.682Z,99203.13
2023-03-04T15:17:25.794Z,99197.56
2023-03-04T15:20:02.042Z,99203.63
2023-03-04T15:22:30.207Z,99200.66
2023-03-04T15:25:00.831Z,99200.19
2023-03-04T15:27:31.515Z,99208.63
2023-03-04T15:30:02.294Z,99206.44
2023-03-04T15:32:31.497Z,99208.22
2023-03-04T15:35:00.569Z,99211.09
2023-03-04T15:37:30.570Z,99201.13
2023-03-04T15:40:00.188Z,99205.53
2023-03-04T15:42:29.040Z,99192.75
2023-03-04T15:44:57.966Z,99197.53
2023-03-04T15:47:25.774Z,99200.47
2023-03-04T15:49:53.693Z,99196.03
2023-03-04T15:52:26.066Z,99200.91
2023-03-04T15:54:55.187Z,99192.72
2023-03-04T15:57:27.573Z,99190.28
2023-03-04T15:59:55.608Z,99190.38
2023-03-04T16:02:25.068Z,99187.56
2023-03-04T16:04:53.165Z,99196.16
2023-03-04T16:07:25.573Z,99188.31
2023-03-04T16:09:56.854Z,99194.13
2023-03-04T16:12:28.718Z,99195.56
2023-03-04T16:14:56.873Z,99195.56
2023-03-04T16:17:25.085Z,99187.94
2023-03-04T16:19:52.891Z,99195.91
2023-03-04T16:22:24.527Z,99197.72
2023-03-04T16:24:54.717Z,99193.06
2023-03-04T16:27:24.519Z,99197.72
2023-03-04T16:29:53.741Z,99194.94
2023-03-04T16:32:21.685Z,99195.91
2023-03-04T16:34:51.928Z,99191.00
2023-03-04T16:37:21.580Z,99192.94
2023-03-04T16:39:50.734Z,99186.56
2023-03-04T16:42:22.843Z,99196.69
2023-03-04T16:44:51.128Z,99189.84
2023-03-04T16:47:20.777Z,99196.47
2023-03-04T16:49:49.175Z,99199.63
2023-03-04T16:52:24.855Z,99203.84
2023-03-04T16:54:55.590Z,99190.81
2023-03-04T16:57:23.513Z,99187.84
2023-03-04T16:59:52.472Z,99195.91
2023-03-04T17:02:26.674Z,99196.16
2023-03-04T17:04:56.517Z,99191.44
2023-03-04T17:07:24.305Z,99199.09
2023-03-04T17:09:53.057Z,99191.50
2023-03-04T17:12:20.880Z,99188.63
2023-03-04T17:14:49.314Z,99193.22
2023-03-04T17:17:21.887Z,99188.09
2023-03-04T17:19:51.763Z,99194.81
2023-03-04T17:22:20.099Z,99191.00
2023-03-04T17:24:49.795Z,99205.22
2023-03-04T17:27:18.541Z,99201.44
2023-03-04T17:29:47.757Z,99200.94
2023-03-04T17:32:16.154Z,99204.38
2023-03-04T17:34:44.807Z,99202.78
2023-03-04T17:37:15.380Z,99201.34
2023-03-04T17:39:43.634Z,99196.25
2023-03-04T17:42:11.701Z,99201.09
2023-03-04T17:44:40.118Z,99211.81
2023-03-04T17:47:33.365Z,99206.44
2023-03-04T17:50:09.537Z,99208.09
2023-03-04T17:52:41.449Z,99207.31
2023-03-04T17:55:12.527Z,99201.09
2023-03-04T17:57:40.576Z,99203.63
2023-03-04T18:00:12.898Z,99199.94
2023-03-04T18:03:00.324Z,99207.72
2023-03-04T18:05:28.743Z,99203.31
2023-03-04T18:08:00.487Z,99202.44
2023-03-04T18:10:28.611Z,99206.81
2023-03-04T18:12:56.749Z,99207.66
2023-03-04T18:15:24.830Z,99193.41
2023-03-04T18:17:53.206Z,99202.44
2023-03-04T18:20:25.025Z,99208.31
2023-03-04T18:23:22.772Z,99193.28
2023-03-04T18:25:58.902Z,99188.88
2023-03-04T18:28:27.042Z,99177.72
2023-03-04T18:30:56.951Z,99183.88
2023-03-04T18:33:29.166Z,99182.59
2023-03-04T18:36:05.952Z,99175.78
2023-03-04T18:38:36.555Z,99177.22
2023-03-04T18:41:09.361Z,99181.06
2023-03-04T18:43:38.523Z,99184.28
2023-03-04T18:46:18.359Z,99183.19
2023-03-04T18:49:10.174Z,99174.31
2023-03-04T18:51:46.394Z,99178.81
2023-03-04T18:54:36.769Z,99179.97
2023-03-04T18:57:14.664Z,99179.84
2023-03-04T19:00:12.522Z,99190.84
2023-03-04T19:02:47.948Z,99185.72
2023-03-04T19:05:20.145Z,99174.38
2023-03-04T19:07:48.928Z,99175.91
2023-03-04T19:10:21.217Z,99179.19
2023-03-04T19:12:49.460Z,99172.47
2023-03-04T19:15:18.397Z,99168.72
2023-03-04T19:17:46.697Z,99167.75
2023-03-04T19:20:16.552Z,99170.47
2023-03-04T19:22:45.893Z,99176.31
2023-03-04T19:25:14.382Z,99166.16
2023-03-04T19:27:43.850Z,99166.84
2023-03-04T19:30:13.388Z,99159.63
2023-03-04T19:32:41.798Z,99170.69
2023-03-04T19:35:10.609Z,99161.16
2023-03-04T19:37:38.759Z,99164.88
2023-03-04T19:40:11.023Z,99158.00
2023-03-04T19:42:46.943Z,99156.41
2023-03-04T19:45:15.181Z,99156.16
2023-03-04T19:47:52.691Z,99150.69
2023-03-04T19:50:42.254Z,99153.97
2023-03-04T19:53:12.250Z,99153.09
2023-03-04T19:55:40.525Z,99154.31
2023-03-04T19:58:10.545Z,99160.34
2023-03-04T20:00:38.588Z,99148.84
2023-03-04T20:03:07.786Z,99158.25
2023-03-04T20:05:36.829Z,99158.06
2023-03-04T20:08:05.677Z,99151.72
2023-03-04T20:10:40.727Z,99149.09
2023-03-04T20:13:12.956Z,99158.38
2023-03-04T20:15:43.884Z,99159.56
2023-03-04T20:18:17.434Z,99156.91
2023-03-04T20:21:06.695Z,99154.00
2023-03-04T20:23:34.950Z,99149.56
2023-03-04T20:26:09.179Z,99156.56
2023-03-04T20:28:52.697Z,99147.66
2023-03-04T20:31:23.422Z,99145.09
2023-03-04T20:33:52.453Z,99144.22
2023-03-04T20:36:32.267Z,99137.75
2023-03-04T20:39:28.604Z,99137.63
2023-03-04T20:41:58.074Z,99129.63
2023-03-04T20:44:28.214Z,99133.69
2023-03-04T20:46:56.752Z,99135.78
2023-03-04T20:49:27.312Z,99136.41
2023-03-04T20:51:58.088Z,99120.72
2023-03-04T20:54:35.005Z,99126.81
2023-03-04T20:57:40.026Z,99122.25
2023-03-04T21:00:38.305Z,99123.97
2023-03-04T21:03:08.833Z,99133.09
2023-03-04T21:05:36.876Z,99140.13
2023-03-04T21:08:04.858Z,99135.75
2023-03-04T21:10:36.576Z,99134.44
2023-03-04T21:13:05.586Z,99134.09
2023-03-04T21:15:35.137Z,99127.13
2023-03-04T21:18:03.325Z,99122.16
2023-03-04T21:20:34.201Z,99126.84
2023-03-04T21:23:02.264Z,99122.75
2023-03-04T21:25:30.269Z,99127.50
2023-03-04T21:27:58.384Z,99126.47
2023-03-04T21:30:26.486Z,99119.28
2023-03-04T21:32:56.085Z,99123.13
2023-03-04T21:35:24.387Z,99118.78
2023-03-04T21:37:52.541Z,99112.44
2023-03-04T21:40:20.802Z,99115.84
2023-03-04T21:42:51.085Z,99108.00
2023-03-04T21:45:19.621Z,99112.78
2023-03-04T21:47:49.353Z,99101.97
2023-03-04T21:50:18.969Z,99108.69
2023-03-04T21:52:46.896Z,99102.63
2023-03-04T21:55:18.016Z,99100.00
2023-03-04T21:57:45.993Z,99094.78
2023-03-04T22:00:16.092Z,99098.91
2023-03-04T22:02:44.171Z,99103.19
2023-03-04T22:05:12.395Z,99091.84
2023-03-04T22:07:41.892Z,99098.09
2023-03-04T22:10:12.712Z,99092.03
2023-03-04T22:12:43.610Z,99087.63
2023-03-04T22:15:12.507Z,99082.09
2023-03-04T22:17:41.561Z,99085.78
2023-03-04T22:20:11.294Z,99083.03
2023-03-04T22:22:39.197Z,99082.09
2023-03-04T22:25:10.213Z,99075.03
2023-03-04T22:27:38.265Z,99072.72
2023-03-04T22:30:07.103Z,99071.69
2023-03-04T22:32:37.350Z,99076.03
2023-03-04T22:35:05.898Z,99069.06
2023-03-04T22:37:33.873Z,99063.75
2023-03-04T22:40:02.180Z,99059.13
2023-03-04T22:42:31.632Z,99074.91
2023-03-04T22:44:59.914Z,99069.41
2023-03-04T22:47:27.907Z,99076.50
2023-03-04T22:49:55.771Z,99072.97
2023-03-04T22:52:23.752Z,99064.81
2023-03-04T22:54:52.130Z,99062.06
2023-03-04T22:57:20.370Z,99060.25
2023-03-04T22:59:50.144Z,99065.22
2023-03-04T23:02:18.517Z,99068.56
2023-03-04T23:04:46.916Z,99061.56
2023-03-04T23:07:15.525Z,99065.69
2023-03-04T23:09:43.584Z,99055.00
2023-03-04T23:12:11.481Z,99055.91
2023-03-04T23:14:40.022Z,99053.09
2023-03-04T23:17:11.776Z,99047.28
2023-03-04T23:19:40.357Z,99051.22
2023-03-04T23:22:08.732Z,99048.53
2023-03-04T23:24:36.942Z,99049.25
2023-03-04T23:27:05.317Z,99047.66
2023-03-04T23:29:36.367Z,99047.56
2023-03-04T23:32:04.341Z,99047.47
2023-03-04T23:34:33.916Z,99051.44
2023-03-04T23:37:01.951Z,99050.81
2023-03-04T23:39:30.114Z,99051.75
2023-03-04T23:41:58.571Z,99050.75
2023-03-04T23:44:26.586Z,99044.28
2023-03-04T23:46:54.456Z,99040.50
2023-03-04T23:49:24.441Z,99042.16
2023-03-04T23:51:53.986Z,99036.28
2023-03-04T23:54:21.910Z,99039.63
2023-03-04T23:56:50.133Z,99044.78
2023-03-04T23:59:18.251Z,99035.38
